Time;durP1;ratioP1;P1;durP2;ratioP2;P2;SDS_P1;SDS_P2;PMS_P1;PMS_P2;Temp;Humidity;BMP_temperature;BMP_pressure;BME280_temperature;BME280_humidity;BME280_pressure;Samples;Min_cycle;Max_cycle;Signal;HPM_P1;HPM_P2
2022/06/05 00:01:48;;;;;;;24.80;15.07;;;;;;;;;;4876911;29;20197;-66
2022/06/05 00:04:34;;;;;;;24.83;15.60;;;;;;;;;;4877089;29;20279;-65
2022/06/05 00:07:00;;;;;;;22.87;14.57;;;;;;;;;;4876806;29;20196;-65
2022/06/05 00:09:38;;;;;;;25.73;16.00;;;;;;;;;;4869502;29;20195;-65
2022/06/05 00:12:06;;;;;;;22.87;14.90;;;;;;;;;;4866038;29;20449;-67
2022/06/05 00:14:50;;;;;;;26.03;15.17;;;;;;;;;;4876698;29;20185;-65
2022/06/05 00:17:18;;;;;;;21.37;13.87;;;;;;;;;;4876531;29;20798;-66
2022/06/05 00:19:46;;;;;;;23.83;15.43;;;;;;;;;;4876468;29;20208;-65
2022/06/05 00:22:13;;;;;;;22.87;14.40;;;;;;;;;;4877015;29;20196;-65
2022/06/05 00:24:40;;;;;;;23.73;15.20;;;;;;;;;;4856711;29;20210;-66
2022/06/05 00:27:33;;;;;;;26.00;15.70;;;;;;;;;;4879997;29;20205;-65
2022/06/05 00:30:05;;;;;;;23.40;14.47;;;;;;;;;;4879949;29;20231;-65
2022/06/05 00:32:38;;;;;;;24.23;15.10;;;;;;;;;;4864502;29;20441;-65
2022/06/05 00:35:06;;;;;;;26.13;15.97;;;;;;;;;;4870155;29;20250;-66
2022/06/05 00:37:51;;;;;;;24.53;15.57;;;;;;;;;;4843543;29;20692;-65
2022/06/05 00:40:26;;;;;;;24.00;15.40;;;;;;;;;;4865540;29;20260;-65
2022/06/05 00:43:12;;;;;;;21.77;14.37;;;;;;;;;;4865246;29;20209;-66
2022/06/05 00:45:39;;;;;;;23.13;14.60;;;;;;;;;;4859720;29;20453;-65
2022/06/05 00:48:09;;;;;;;23.77;15.00;;;;;;;;;;4844009;29;20217;-65
2022/06/05 00:50:35;;;;;;;22.77;14.20;;;;;;;;;;4876127;29;20448;-65
2022/06/05 00:53:03;;;;;;;32.10;16.00;;;;;;;;;;4875829;29;20457;-66
2022/06/05 00:55:49;;;;;;;23.10;14.93;;;;;;;;;;4875843;29;20649;-65
2022/06/05 00:58:15;;;;;;;22.90;14.20;;;;;;;;;;4860035;29;20653;-65
2022/06/05 01:01:00;;;;;;;22.83;14.23;;;;;;;;;;4861904;29;20430;-67
2022/06/05 01:03:26;;;;;;;21.07;13.47;;;;;;;;;;4859139;29;20826;-65
2022/06/05 01:05:53;;;;;;;33.90;14.70;;;;;;;;;;4875568;29;20450;-64
2022/06/05 01:08:20;;;;;;;28.20;15.00;;;;;;;;;;4875647;29;20618;-66
2022/06/05 01:11:02;;;;;;;24.40;14.20;;;;;;;;;;4875237;29;20552;-64
2022/06/05 01:13:28;;;;;;;22.27;13.30;;;;;;;;;;4846612;29;20460;-64
2022/06/05 01:15:56;;;;;;;19.97;13.53;;;;;;;;;;4851824;29;20461;-66
2022/06/05 01:18:23;;;;;;;46.90;16.23;;;;;;;;;;4875469;29;20465;-65
2022/06/05 01:21:09;;;;;;;19.10;13.40;;;;;;;;;;4850139;29;20549;-65
2022/06/05 01:23:45;;;;;;;20.27;12.70;;;;;;;;;;4875640;29;20445;-65
2022/06/05 01:26:33;;;;;;;20.13;12.17;;;;;;;;;;4854554;29;20446;-65
2022/06/05 01:29:01;;;;;;;20.63;12.50;;;;;;;;;;4858547;29;20603;-65
2022/06/05 01:31:57;;;;;;;21.80;13.10;;;;;;;;;;4853326;29;20984;-67
2022/06/05 01:34:24;;;;;;;23.30;13.77;;;;;;;;;;4858315;29;21017;-65
2022/06/05 01:36:53;;;;;;;20.30;12.53;;;;;;;;;;4875122;29;20445;-65
2022/06/05 01:39:22;;;;;;;19.47;13.20;;;;;;;;;;4875035;29;20461;-65
2022/06/05 01:41:50;;;;;;;17.67;12.33;;;;;;;;;;4874911;29;20483;-65
2022/06/05 01:44:40;;;;;;;17.57;12.50;;;;;;;;;;4858019;29;20470;-65
2022/06/05 01:47:08;;;;;;;18.73;12.47;;;;;;;;;;4874680;29;20548;-65
2022/06/05 01:50:00;;;;;;;16.87;11.77;;;;;;;;;;4857521;29;20528;-65
2022/06/05 01:52:35;;;;;;;20.27;11.97;;;;;;;;;;4875270;29;20457;-65
2022/06/05 01:55:32;;;;;;;18.07;11.80;;;;;;;;;;4837414;29;20971;-65
2022/06/05 01:58:00;;;;;;;16.80;11.57;;;;;;;;;;4858840;29;20498;-65
2022/06/05 02:00:26;;;;;;;18.63;11.83;;;;;;;;;;4856033;29;20438;-65
2022/06/05 02:02:55;;;;;;;16.83;11.10;;;;;;;;;;4839741;29;20453;-65
2022/06/05 02:05:26;;;;;;;17.00;11.03;;;;;;;;;;4839521;29;20462;-65
2022/06/05 02:07:55;;;;;;;19.27;12.00;;;;;;;;;;4838822;29;20508;-65
2022/06/05 02:10:24;;;;;;;19.53;11.70;;;;;;;;;;4839534;29;20452;-65
2022/06/05 02:12:51;;;;;;;16.07;11.30;;;;;;;;;;4839544;29;20450;-65
2022/06/05 02:15:18;;;;;;;15.70;10.50;;;;;;;;;;4839549;29;20449;-65
2022/06/05 02:17:44;;;;;;;16.20;10.63;;;;;;;;;;4855783;29;20456;-66
2022/06/05 02:20:11;;;;;;;15.77;11.07;;;;;;;;;;4839096;29;21018;-67
2022/06/05 02:22:48;;;;;;;15.47;11.03;;;;;;;;;;4839709;29;20958;-65
2022/06/05 02:25:15;;;;;;;16.73;10.03;;;;;;;;;;4834172;29;20553;-65
2022/06/05 02:27:41;;;;;;;16.00;10.50;;;;;;;;;;4839117;29;20556;-66
2022/06/05 02:30:09;;;;;;;15.17;10.30;;;;;;;;;;4855558;29;20450;-65
2022/06/05 02:32:49;;;;;;;16.80;11.07;;;;;;;;;;4857896;29;20441;-65
2022/06/05 02:35:25;;;;;;;17.57;10.07;;;;;;;;;;4874292;29;20460;-65
2022/06/05 02:38:02;;;;;;;16.07;10.50;;;;;;;;;;4874130;29;20948;-65
2022/06/05 02:40:46;;;;;;;16.87;10.20;;;;;;;;;;4859891;29;20474;-66
2022/06/05 02:43:31;;;;;;;19.77;11.43;;;;;;;;;;4848912;29;20950;-65
2022/06/05 02:45:59;;;;;;;80.53;13.97;;;;;;;;;;4868523;29;20546;-70
2022/06/05 02:48:31;;;;;;;14.77;10.73;;;;;;;;;;4874125;29;20473;-65
2022/06/05 02:51:00;;;;;;;16.27;10.43;;;;;;;;;;4857728;29;20548;-65
2022/06/05 02:53:27;;;;;;;18.67;11.00;;;;;;;;;;4857533;29;20447;-65
2022/06/05 02:55:54;;;;;;;17.07;10.93;;;;;;;;;;4873691;29;21004;-65
2022/06/05 02:58:20;;;;;;;17.73;10.50;;;;;;;;;;4874302;29;21300;-65
2022/06/05 03:03:35;;;;;;;15.23;10.47;;;;;;;;;;4847175;29;20449;-65
2022/06/05 03:06:19;;;;;;;14.50;10.83;;;;;;;;;;4863705;29;20995;-64
2022/06/05 03:08:46;;;;;;;15.80;10.80;;;;;;;;;;4877519;29;20473;-65
2022/06/05 03:11:12;;;;;;;14.70;10.63;;;;;;;;;;4877548;29;20462;-64
2022/06/05 03:13:39;;;;;;;15.87;10.57;;;;;;;;;;4877955;29;20442;-64
2022/06/05 03:16:08;;;;;;;17.73;10.30;;;;;;;;;;4877892;29;20455;-65
2022/06/05 03:18:52;;;;;;;15.17;9.80;;;;;;;;;;4877464;29;20530;-65
2022/06/05 03:21:20;;;;;;;16.17;10.53;;;;;;;;;;4864280;29;20233;-65
2022/06/05 03:24:05;;;;;;;14.53;10.03;;;;;;;;;;4877167;29;20675;-65
2022/06/05 03:26:32;;;;;;;15.83;10.00;;;;;;;;;;4877356;29;20441;-65
2022/06/05 03:28:59;;;;;;;15.30;10.60;;;;;;;;;;4877342;29;20563;-65
2022/06/05 03:31:26;;;;;;;14.67;10.20;;;;;;;;;;4877460;29;20452;-65
2022/06/05 03:33:52;;;;;;;14.83;10.63;;;;;;;;;;4877302;29;20460;-65
2022/06/05 03:36:19;;;;;;;18.33;10.93;;;;;;;;;;4858677;29;20542;-65
2022/06/05 03:38:46;;;;;;;17.03;11.37;;;;;;;;;;4868650;29;20753;-65
2022/06/05 03:41:15;;;;;;;14.63;10.37;;;;;;;;;;4876772;29;20264;-65
2022/06/05 03:43:59;;;;;;;15.20;10.50;;;;;;;;;;4874413;29;20359;-65
2022/06/05 03:46:26;;;;;;;13.13;9.30;;;;;;;;;;4877318;29;20193;-65
2022/06/05 03:48:54;;;;;;;13.20;9.70;;;;;;;;;;4853954;29;20222;-66
2022/06/05 03:51:21;;;;;;;11.23;9.43;;;;;;;;;;4870053;29;20197;-65
2022/06/05 03:53:48;;;;;;;12.53;9.33;;;;;;;;;;4853081;29;20203;-65
2022/06/05 03:56:16;;;;;;;11.83;9.33;;;;;;;;;;4876584;29;20300;-64
2022/06/05 03:58:44;;;;;;;11.93;9.23;;;;;;;;;;4876929;29;20209;-66
2022/06/05 04:01:11;;;;;;;13.83;9.17;;;;;;;;;;4877242;29;20265;-65
2022/06/05 04:03:38;;;;;;;11.40;9.10;;;;;;;;;;4877071;29;20199;-65
2022/06/05 04:06:13;;;;;;;12.43;9.27;;;;;;;;;;4876588;29;20231;-66
2022/06/05 04:08:59;;;;;;;13.00;9.50;;;;;;;;;;4852907;29;20221;-66
2022/06/05 04:11:26;;;;;;;14.27;9.83;;;;;;;;;;4876220;29;20691;-66
2022/06/05 04:13:53;;;;;;;14.13;9.40;;;;;;;;;;4876388;29;20208;-66
2022/06/05 04:16:20;;;;;;;13.83;10.17;;;;;;;;;;4860540;29;20205;-66
2022/06/05 04:18:47;;;;;;;14.77;9.93;;;;;;;;;;4876593;29;20264;-66
2022/06/05 04:21:15;;;;;;;15.27;10.87;;;;;;;;;;4876337;29;20204;-66
2022/06/05 04:23:42;;;;;;;14.20;9.63;;;;;;;;;;4876703;29;20196;-67
2022/06/05 04:26:10;;;;;;;14.43;10.37;;;;;;;;;;4861075;29;20222;-66
2022/06/05 04:28:38;;;;;;;12.37;9.17;;;;;;;;;;4868163;29;20645;-66
2022/06/05 04:31:05;;;;;;;12.33;9.50;;;;;;;;;;4876364;29;20240;-66
2022/06/05 04:33:34;;;;;;;13.43;9.20;;;;;;;;;;4876357;29;20568;-67
2022/06/05 04:36:19;;;;;;;13.37;10.10;;;;;;;;;;4876569;29;20187;-66
2022/06/05 04:38:45;;;;;;;15.33;9.33;;;;;;;;;;4876258;29;20676;-66
2022/06/05 04:41:13;;;;;;;12.23;9.20;;;;;;;;;;4875606;29;20319;-66
2022/06/05 04:43:40;;;;;;;12.73;9.37;;;;;;;;;;4870654;29;20557;-67
2022/06/05 04:46:07;;;;;;;12.17;9.27;;;;;;;;;;4857650;29;20626;-67
2022/06/05 04:48:52;;;;;;;13.20;9.30;;;;;;;;;;4857232;29;20693;-66
2022/06/05 04:51:19;;;;;;;13.57;8.83;;;;;;;;;;4857475;29;20196;-66
2022/06/05 04:53:46;;;;;;;11.13;8.97;;;;;;;;;;4857159;29;20676;-67
2022/06/05 04:56:14;;;;;;;12.33;7.80;;;;;;;;;;4840544;29;20293;-67
2022/06/05 04:58:40;;;;;;;11.87;7.40;;;;;;;;;;4857307;29;20199;-67
2022/06/05 05:01:28;;;;;;;9.30;7.27;;;;;;;;;;4856053;29;20548;-67
2022/06/05 05:03:56;;;;;;;10.60;7.37;;;;;;;;;;4857303;29;20209;-68
2022/06/05 05:06:24;;;;;;;10.57;6.37;;;;;;;;;;4856868;29;20200;-68
2022/06/05 05:08:51;;;;;;;11.80;6.77;;;;;;;;;;4837142;29;20237;-67
2022/06/05 05:11:18;;;;;;;9.90;7.20;;;;;;;;;;4854977;29;20199;-65
2022/06/05 05:14:02;;;;;;;9.40;7.00;;;;;;;;;;4833093;29;22597;-67
2022/06/05 05:16:30;;;;;;;9.70;6.50;;;;;;;;;;4836130;29;20193;-68
2022/06/05 05:19:14;;;;;;;8.00;6.13;;;;;;;;;;4835698;29;20186;-67
2022/06/05 05:21:41;;;;;;;9.97;6.27;;;;;;;;;;4850355;29;20208;-67
2022/06/05 05:24:25;;;;;;;7.90;5.70;;;;;;;;;;4843143;29;20198;-69
2022/06/05 05:26:52;;;;;;;7.23;4.90;;;;;;;;;;4858570;29;20205;-67
2022/06/05 05:29:19;;;;;;;7.27;4.80;;;;;;;;;;4838968;29;20707;-69
2022/06/05 05:31:46;;;;;;;5.23;4.03;;;;;;;;;;4838790;29;20205;-68
2022/06/05 05:34:14;;;;;;;5.50;4.30;;;;;;;;;;4860577;29;20209;-68
2022/06/05 05:36:40;;;;;;;5.87;4.37;;;;;;;;;;4846878;29;20197;-67
2022/06/05 05:42:05;;;;;;;4.83;4.20;;;;;;;;;;4857238;29;20229;-66
2022/06/05 05:44:45;;;;;;;5.57;4.40;;;;;;;;;;4856363;29;20209;-68
2022/06/05 05:47:15;;;;;;;7.47;4.20;;;;;;;;;;4855400;29;20212;-67
2022/06/05 05:49:42;;;;;;;6.57;4.17;;;;;;;;;;4858421;29;20240;-65
2022/06/05 05:52:10;;;;;;;5.40;4.03;;;;;;;;;;4852220;29;20225;-67
2022/06/05 05:54:37;;;;;;;4.73;4.23;;;;;;;;;;4861769;29;20208;-63
2022/06/05 05:57:04;;;;;;;5.70;3.60;;;;;;;;;;4858746;29;20197;-64
2022/06/05 05:59:32;;;;;;;5.63;3.90;;;;;;;;;;4861036;29;20304;-65
2022/06/05 06:01:59;;;;;;;4.30;3.53;;;;;;;;;;4874094;29;20201;-64
2022/06/05 06:04:26;;;;;;;4.57;3.47;;;;;;;;;;4874220;29;20240;-64
2022/06/05 06:06:53;;;;;;;6.10;3.20;;;;;;;;;;4874501;29;20209;-64
2022/06/05 06:09:20;;;;;;;4.40;3.10;;;;;;;;;;4875062;29;20216;-62
2022/06/05 06:11:46;;;;;;;4.50;3.20;;;;;;;;;;4857738;29;20189;-62
2022/06/05 06:14:16;;;;;;;3.40;3.03;;;;;;;;;;4865914;29;20204;-62
2022/06/05 06:16:42;;;;;;;3.77;2.90;;;;;;;;;;4874258;29;21083;-62
2022/06/05 06:19:09;;;;;;;6.17;3.10;;;;;;;;;;4875032;29;20220;-62
2022/06/05 06:21:36;;;;;;;3.77;3.27;;;;;;;;;;4858116;29;20193;-64
2022/06/05 06:24:12;;;;;;;4.47;2.83;;;;;;;;;;4874362;29;20205;-63
2022/06/05 06:26:39;;;;;;;5.33;3.20;;;;;;;;;;4874499;29;20205;-63
2022/06/05 06:29:06;;;;;;;3.40;2.83;;;;;;;;;;4867449;29;20204;-64
2022/06/05 06:31:32;;;;;;;3.10;2.80;;;;;;;;;;4858607;29;20283;-64
2022/06/05 06:34:01;;;;;;;2.33;2.13;;;;;;;;;;4857785;29;20215;-62
2022/06/05 06:36:28;;;;;;;4.10;2.50;;;;;;;;;;4874342;29;20533;-65
2022/06/05 06:39:15;;;;;;;2.93;2.50;;;;;;;;;;4874349;29;20652;-65
2022/06/05 06:41:41;;;;;;;3.17;2.27;;;;;;;;;;4874049;29;20240;-65
2022/06/05 06:44:08;;;;;;;3.37;2.60;;;;;;;;;;4870299;29;20235;-66
2022/06/05 06:46:36;;;;;;;2.60;2.30;;;;;;;;;;4873025;29;20201;-65
2022/06/05 06:49:03;;;;;;;2.57;1.90;;;;;;;;;;4873911;29;20224;-66
2022/06/05 06:51:30;;;;;;;1.70;1.60;;;;;;;;;;4874079;29;20256;-65
2022/06/05 06:53:56;;;;;;;2.67;1.73;;;;;;;;;;4874111;29;20237;-64
2022/06/05 06:56:26;;;;;;;1.57;1.33;;;;;;;;;;4857320;29;20238;-64
2022/06/05 06:58:53;;;;;;;1.63;1.40;;;;;;;;;;4874146;29;20557;-66
2022/06/05 07:01:20;;;;;;;1.57;1.00;;;;;;;;;;4874661;29;21024;-65
2022/06/05 07:03:48;;;;;;;1.80;1.50;;;;;;;;;;4854030;29;20197;-64
2022/06/05 07:06:15;;;;;;;2.07;1.37;;;;;;;;;;4876219;29;20212;-65
2022/06/05 07:08:42;;;;;;;2.90;1.40;;;;;;;;;;4873724;29;20195;-65
2022/06/05 07:11:09;;;;;;;1.93;1.20;;;;;;;;;;4874133;29;20253;-65
2022/06/05 07:13:36;;;;;;;1.97;1.30;;;;;;;;;;4874223;29;20646;-64
2022/06/05 07:16:04;;;;;;;1.17;1.07;;;;;;;;;;4873903;29;20197;-64
2022/06/05 07:18:31;;;;;;;1.70;1.40;;;;;;;;;;4873622;29;20208;-65
2022/06/05 07:20:57;;;;;;;1.77;1.30;;;;;;;;;;4857816;29;20209;-67
2022/06/05 07:23:24;;;;;;;1.80;1.23;;;;;;;;;;4854009;29;20307;-66
2022/06/05 07:25:51;;;;;;;4.03;1.50;;;;;;;;;;4866789;29;20197;-66
2022/06/05 07:28:18;;;;;;;1.93;1.37;;;;;;;;;;4874001;29;20299;-65
2022/06/05 07:30:45;;;;;;;2.63;1.43;;;;;;;;;;4873624;29;20228;-65
2022/06/05 07:33:12;;;;;;;2.07;1.30;;;;;;;;;;4873593;29;20284;-67
2022/06/05 07:35:38;;;;;;;1.80;1.23;;;;;;;;;;4868430;29;20227;-67
2022/06/05 07:38:05;;;;;;;1.67;1.10;;;;;;;;;;4872618;29;20616;-66
2022/06/05 07:40:40;;;;;;;1.90;0.90;;;;;;;;;;4873575;29;20233;-66
2022/06/05 07:43:09;;;;;;;1.20;1.10;;;;;;;;;;4850205;29;20208;-68
2022/06/05 07:45:37;;;;;;;1.67;1.10;;;;;;;;;;4865635;29;20260;-65
2022/06/05 07:48:04;;;;;;;1.80;1.17;;;;;;;;;;4847517;29;20197;-66
2022/06/05 07:50:31;;;;;;;1.00;0.90;;;;;;;;;;4874472;29;20288;-66
2022/06/05 07:55:44;;;;;;;1.00;0.90;;;;;;;;;;4867771;29;20197;-67
2022/06/05 07:58:11;;;;;;;1.97;1.40;;;;;;;;;;4877057;29;20685;-67
2022/06/05 08:00:38;;;;;;;1.57;1.17;;;;;;;;;;4877097;29;20219;-66
2022/06/05 08:03:05;;;;;;;1.30;1.10;;;;;;;;;;4876624;29;20196;-66
2022/06/05 08:05:32;;;;;;;1.67;1.10;;;;;;;;;;4870680;29;20205;-66
2022/06/05 08:07:59;;;;;;;3.03;1.07;;;;;;;;;;4870918;29;20891;-66
2022/06/05 08:10:26;;;;;;;1.13;1.00;;;;;;;;;;4853630;29;20261;-67
2022/06/05 08:12:52;;;;;;;2.33;1.10;;;;;;;;;;4868866;29;20203;-66
2022/06/05 08:15:20;;;;;;;2.90;1.10;;;;;;;;;;4872880;29;20193;-67
2022/06/05 08:17:46;;;;;;;2.87;1.03;;;;;;;;;;4871843;29;20214;-66
2022/06/05 08:20:13;;;;;;;3.90;1.43;;;;;;;;;;4853054;29;20205;-67
2022/06/05 08:22:40;;;;;;;1.70;1.27;;;;;;;;;;4865081;29;20253;-67
2022/06/05 08:25:07;;;;;;;1.50;1.30;;;;;;;;;;4866570;29;20201;-67
2022/06/05 08:27:34;;;;;;;1.43;1.30;;;;;;;;;;4873118;29;20199;-67
2022/06/05 08:30:01;;;;;;;1.40;1.30;;;;;;;;;;4862290;29;20225;-67
2022/06/05 08:32:28;;;;;;;2.13;1.33;;;;;;;;;;4858296;29;20189;-64
2022/06/05 08:34:55;;;;;;;1.77;1.43;;;;;;;;;;4876404;29;20266;-66
2022/06/05 08:43:10;;;;;;;2.00;1.47;;;;;;;;;;4859317;29;20200;-67
2022/06/05 08:45:48;;;;;;;2.83;1.50;;;;;;;;;;4861394;29;20197;-67
2022/06/05 08:48:36;;;;;;;3.20;1.47;;;;;;;;;;4845812;29;20199;-67
2022/06/05 08:51:21;;;;;;;1.70;1.60;;;;;;;;;;4859924;29;20194;-66
2022/06/05 08:54:01;;;;;;;4.40;1.70;;;;;;;;;;4859572;29;20193;-67
2022/06/05 08:56:30;;;;;;;1.93;1.37;;;;;;;;;;4853951;29;20213;-66
2022/06/05 08:58:59;;;;;;;2.03;1.57;;;;;;;;;;4845973;29;20348;-65
2022/06/05 09:01:37;;;;;;;1.63;1.40;;;;;;;;;;4876122;29;20199;-64
2022/06/05 09:04:16;;;;;;;2.13;1.40;;;;;;;;;;4836357;29;20205;-66
2022/06/05 09:06:48;;;;;;;3.17;1.30;;;;;;;;;;4855444;29;20925;-66
2022/06/05 09:09:20;;;;;;;2.23;1.40;;;;;;;;;;4854428;29;20237;-68
2022/06/05 09:11:47;;;;;;;3.33;1.43;;;;;;;;;;4866209;29;20562;-65
2022/06/05 09:14:34;;;;;;;1.73;1.30;;;;;;;;;;4858875;29;20205;-66
2022/06/05 09:17:12;;;;;;;1.33;1.20;;;;;;;;;;4839259;29;20240;-66
2022/06/05 09:19:39;;;;;;;1.77;1.17;;;;;;;;;;4855085;29;20284;-57
2022/06/05 09:22:06;;;;;;;5.30;1.57;;;;;;;;;;4840151;29;20200;-58
2022/06/05 09:24:32;;;;;;;3.07;1.27;;;;;;;;;;4855522;29;20197;-58
2022/06/05 09:27:01;;;;;;;2.60;1.20;;;;;;;;;;4856359;29;20203;-58
2022/06/05 09:29:54;;;;;;;2.70;1.37;;;;;;;;;;4871827;29;20216;-56
2022/06/05 09:32:27;;;;;;;1.47;1.20;;;;;;;;;;4849244;29;20197;-57
2022/06/05 09:34:56;;;;;;;2.17;1.33;;;;;;;;;;4861904;29;20189;-57
2022/06/05 09:37:28;;;;;;;1.67;1.13;;;;;;;;;;4850825;29;20199;-57
2022/06/05 09:39:56;;;;;;;5.27;1.10;;;;;;;;;;4850012;29;20726;-57
2022/06/05 09:42:41;;;;;;;1.73;1.30;;;;;;;;;;4858190;29;20237;-57
2022/06/05 09:45:27;;;;;;;2.53;1.27;;;;;;;;;;4857917;29;20204;-57
2022/06/05 09:47:57;;;;;;;1.50;1.40;;;;;;;;;;4863854;29;20201;-57
2022/06/05 09:50:41;;;;;;;1.37;1.27;;;;;;;;;;4869220;29;20223;-57
2022/06/05 09:53:12;;;;;;;2.90;1.20;;;;;;;;;;4852255;29;20204;-58
2022/06/05 09:55:44;;;;;;;1.80;1.30;;;;;;;;;;4852254;29;20206;-58
2022/06/05 09:58:24;;;;;;;2.10;1.40;;;;;;;;;;4841760;29;20209;-57
2022/06/05 10:01:19;;;;;;;2.17;1.40;;;;;;;;;;4858992;29;20330;-57
2022/06/05 10:03:45;;;;;;;2.97;1.33;;;;;;;;;;4855681;29;20201;-58
2022/06/05 10:06:30;;;;;;;5.20;1.50;;;;;;;;;;4852814;29;20261;-58
2022/06/05 10:09:04;;;;;;;3.57;1.40;;;;;;;;;;4855514;29;20201;-58
2022/06/05 10:11:37;;;;;;;2.90;1.43;;;;;;;;;;4851840;29;20221;-58
2022/06/05 10:14:07;;;;;;;2.33;1.70;;;;;;;;;;4839103;29;20205;-58
2022/06/05 10:16:45;;;;;;;3.13;1.33;;;;;;;;;;4847328;29;20242;-58
2022/06/05 10:19:13;;;;;;;2.77;1.63;;;;;;;;;;4852432;29;20808;-58
2022/06/05 10:21:41;;;;;;;2.03;1.70;;;;;;;;;;4850908;29;20198;-57
2022/06/05 10:24:16;;;;;;;5.03;1.70;;;;;;;;;;4854165;29;20201;-58
2022/06/05 10:27:01;;;;;;;2.10;1.77;;;;;;;;;;4839798;29;20314;-58
2022/06/05 10:29:28;;;;;;;4.20;1.60;;;;;;;;;;4836433;29;20688;-57
2022/06/05 10:32:19;;;;;;;2.40;1.80;;;;;;;;;;4855059;29;20229;-58
2022/06/05 10:34:49;;;;;;;3.20;1.40;;;;;;;;;;4850610;29;20554;-58
2022/06/05 10:37:38;;;;;;;4.17;1.90;;;;;;;;;;4839902;29;20206;-58
2022/06/05 10:40:19;;;;;;;1.70;1.53;;;;;;;;;;4861041;29;20193;-58
2022/06/05 10:43:18;;;;;;;3.00;1.67;;;;;;;;;;4850499;29;20197;-58
2022/06/05 10:45:49;;;;;;;2.20;1.90;;;;;;;;;;4844159;29;20756;-57
2022/06/05 10:48:28;;;;;;;2.73;1.60;;;;;;;;;;4838711;29;20250;-58
2022/06/05 10:50:56;;;;;;;4.43;1.97;;;;;;;;;;4856677;29;20236;-57
2022/06/05 10:53:36;;;;;;;3.13;1.97;;;;;;;;;;4852408;29;20204;-59
2022/06/05 10:56:15;;;;;;;3.13;1.90;;;;;;;;;;4866997;29;20197;-56
2022/06/05 10:58:43;;;;;;;2.80;1.50;;;;;;;;;;4858841;29;20960;-60
2022/06/05 11:01:49;;;;;;;1.90;1.70;;;;;;;;;;4849543;29;21020;-58
2022/06/05 11:04:16;;;;;;;2.53;1.50;;;;;;;;;;4816111;29;20205;-59
2022/06/05 11:06:50;;;;;;;3.73;1.63;;;;;;;;;;4814800;29;20219;-57
2022/06/05 11:09:39;;;;;;;3.70;1.70;;;;;;;;;;4844468;29;20198;-57
2022/06/05 11:15:30;;;;;;;2.53;1.60;;;;;;;;;;4868063;29;20549;-57
2022/06/05 11:18:33;;;;;;;4.97;1.90;;;;;;;;;;4836771;29;20236;-57
2022/06/05 11:21:01;;;;;;;1.80;1.60;;;;;;;;;;4789156;29;20209;-57
2022/06/05 11:23:28;;;;;;;2.60;1.80;;;;;;;;;;4832108;29;20336;-58
2022/06/05 11:26:21;;;;;;;1.70;1.50;;;;;;;;;;4842370;29;20201;-56
2022/06/05 11:29:19;;;;;;;2.20;1.33;;;;;;;;;;4864136;29;20185;-57
2022/06/05 11:31:46;;;;;;;1.43;1.17;;;;;;;;;;4868764;29;20217;-58
2022/06/05 11:34:19;;;;;;;1.90;1.73;;;;;;;;;;4866177;29;20229;-58
2022/06/05 11:36:48;;;;;;;2.17;1.60;;;;;;;;;;4869237;29;20304;-59
2022/06/05 11:39:15;;;;;;;1.43;1.33;;;;;;;;;;4874570;29;20204;-59
2022/06/05 11:41:44;;;;;;;2.93;1.50;;;;;;;;;;4854066;29;20635;-58
2022/06/05 11:44:17;;;;;;;4.30;1.43;;;;;;;;;;4861772;29;20213;-58
2022/06/05 11:47:15;;;;;;;1.40;1.20;;;;;;;;;;4856917;29;20720;-58
2022/06/05 11:49:44;;;;;;;2.60;1.10;;;;;;;;;;4838090;29;21348;-59
2022/06/05 11:52:20;;;;;;;1.13;1.03;;;;;;;;;;4868356;29;20197;-59
2022/06/05 11:54:49;;;;;;;3.47;1.20;;;;;;;;;;4863211;29;20281;-59
2022/06/05 11:57:18;;;;;;;1.70;0.90;;;;;;;;;;4839756;29;20222;-59
2022/06/05 11:59:50;;;;;;;3.00;1.10;;;;;;;;;;4857466;29;20569;-59
2022/06/05 12:02:29;;;;;;;5.07;1.30;;;;;;;;;;4851883;29;20289;-59
2022/06/05 12:05:14;;;;;;;1.20;0.77;;;;;;;;;;4857951;29;20205;-59
2022/06/05 12:07:41;;;;;;;3.30;0.90;;;;;;;;;;4857481;29;20216;-59
2022/06/05 12:10:12;;;;;;;3.73;1.10;;;;;;;;;;4856601;29;20257;-59
2022/06/05 12:12:42;;;;;;;3.07;1.00;;;;;;;;;;4850149;29;20617;-58
2022/06/05 12:15:14;;;;;;;0.93;0.90;;;;;;;;;;4859233;29;20194;-59
2022/06/05 12:17:48;;;;;;;1.23;0.80;;;;;;;;;;4835421;29;20297;-59
2022/06/05 12:20:21;;;;;;;0.90;0.90;;;;;;;;;;4838603;29;20265;-59
2022/06/05 12:22:53;;;;;;;3.43;1.10;;;;;;;;;;4840263;29;20220;-58
2022/06/05 12:25:19;;;;;;;1.33;0.80;;;;;;;;;;4840624;29;20197;-58
2022/06/05 12:28:17;;;;;;;1.00;0.80;;;;;;;;;;4857262;29;20681;-59
2022/06/05 12:30:54;;;;;;;0.80;0.70;;;;;;;;;;4848818;29;20241;-58
2022/06/05 12:33:31;;;;;;;3.53;1.23;;;;;;;;;;4862304;29;20204;-57
2022/06/05 12:36:10;;;;;;;2.00;0.70;;;;;;;;;;4835148;29;20202;-56
2022/06/05 12:38:38;;;;;;;1.53;1.00;;;;;;;;;;4857648;29;20291;-58
2022/06/05 12:41:22;;;;;;;0.90;0.70;;;;;;;;;;4841565;29;20245;-59
2022/06/05 12:43:57;;;;;;;1.47;0.90;;;;;;;;;;4826336;29;20289;-58
2022/06/05 12:46:43;;;;;;;2.70;0.97;;;;;;;;;;4837782;29;20227;-58
2022/06/05 12:49:23;;;;;;;2.20;0.90;;;;;;;;;;4838018;29;20198;-59
2022/06/05 12:51:55;;;;;;;2.10;0.80;;;;;;;;;;4822210;29;20240;-58
2022/06/05 12:54:24;;;;;;;4.00;0.90;;;;;;;;;;4832284;29;20277;-58
2022/06/05 12:57:13;;;;;;;1.83;0.80;;;;;;;;;;4825142;29;20207;-59
2022/06/05 12:59:50;;;;;;;1.83;1.07;;;;;;;;;;4824914;29;20245;-59
2022/06/05 13:02:38;;;;;;;0.93;0.80;;;;;;;;;;4818613;29;20198;-59
2022/06/05 13:05:06;;;;;;;1.90;0.90;;;;;;;;;;4806454;29;20565;-60
2022/06/05 13:07:35;;;;;;;0.83;0.83;;;;;;;;;;4795644;29;20191;-58
2022/06/05 13:10:07;;;;;;;1.30;1.20;;;;;;;;;;4816108;29;20210;-63
2022/06/05 13:12:45;;;;;;;3.53;2.77;;;;;;;;;;4825345;29;20190;-66
2022/06/05 13:15:29;;;;;;;1.60;1.00;;;;;;;;;;4812573;29;20225;-59
2022/06/05 13:18:01;;;;;;;1.20;1.10;;;;;;;;;;4809269;29;20292;-59
2022/06/05 13:20:34;;;;;;;1.97;0.90;;;;;;;;;;4824377;29;20289;-65
2022/06/05 13:23:10;;;;;;;1.60;1.00;;;;;;;;;;4818484;29;20191;-64
2022/06/05 13:25:44;;;;;;;3.10;2.80;;;;;;;;;;4826190;29;20693;-67
2022/06/05 13:28:47;;;;;;;1.40;1.07;;;;;;;;;;4823999;29;20271;-65
2022/06/05 13:31:16;;;;;;;0.90;0.90;;;;;;;;;;4820726;29;20292;-67
2022/06/05 13:33:44;;;;;;;1.00;0.80;;;;;;;;;;4834590;29;20195;-66
2022/06/05 13:36:21;;;;;;;1.43;1.23;;;;;;;;;;4830794;29;20195;-68
2022/06/05 13:39:01;;;;;;;1.20;1.10;;;;;;;;;;4837727;29;20258;-67
2022/06/05 13:41:40;;;;;;;2.17;1.83;;;;;;;;;;4835022;29;20337;-68
2022/06/05 13:44:19;;;;;;;8.50;2.93;;;;;;;;;;4826162;29;20208;-66
2022/06/05 13:47:05;;;;;;;1.37;1.10;;;;;;;;;;4818975;29;20203;-68
2022/06/05 13:49:52;;;;;;;1.17;1.00;;;;;;;;;;4818713;29;20183;-66
2022/06/05 13:52:24;;;;;;;2.40;1.03;;;;;;;;;;4818969;29;20225;-65
2022/06/05 13:54:55;;;;;;;3.10;1.20;;;;;;;;;;4827106;29;20227;-61
2022/06/05 13:57:43;;;;;;;2.23;1.03;;;;;;;;;;4835231;29;20289;-67
2022/06/05 14:00:32;;;;;;;1.70;1.10;;;;;;;;;;4824361;29;20546;-62
2022/06/05 14:03:02;;;;;;;0.80;0.80;;;;;;;;;;4835859;29;20213;-67
2022/06/05 14:05:35;;;;;;;1.40;1.10;;;;;;;;;;4829524;29;20655;-63
2022/06/05 14:08:09;;;;;;;1.20;1.10;;;;;;;;;;4829918;29;20662;-66
2022/06/05 14:10:55;;;;;;;3.80;1.07;;;;;;;;;;4828091;29;20331;-67
2022/06/05 14:13:22;;;;;;;2.50;0.90;;;;;;;;;;4822599;29;20686;-62
2022/06/05 14:15:49;;;;;;;2.13;1.00;;;;;;;;;;4826410;29;20289;-64
2022/06/05 14:18:23;;;;;;;2.57;1.00;;;;;;;;;;4811437;29;20331;-67
2022/06/05 14:21:13;;;;;;;8.33;1.50;;;;;;;;;;4833605;29;20194;-65
2022/06/05 14:23:44;;;;;;;1.30;0.87;;;;;;;;;;4820153;29;20252;-65
2022/06/05 14:26:12;;;;;;;1.30;0.83;;;;;;;;;;4837278;29;20237;-69
2022/06/05 14:28:40;;;;;;;0.97;0.73;;;;;;;;;;4834575;29;20201;-67
2022/06/05 14:31:18;;;;;;;1.10;1.00;;;;;;;;;;4814328;29;20320;-69
2022/06/05 14:33:53;;;;;;;1.40;1.07;;;;;;;;;;4835492;29;20208;-72
2022/06/05 14:36:40;;;;;;;8.13;5.67;;;;;;;;;;4814376;29;20991;-63
2022/06/05 14:39:18;;;;;;;1.83;1.73;;;;;;;;;;4836693;29;20292;-66
2022/06/05 14:41:54;;;;;;;2.00;1.40;;;;;;;;;;4805789;29;20234;-68
2022/06/05 14:44:54;;;;;;;1.87;0.90;;;;;;;;;;4808208;29;20203;-65
2022/06/05 14:47:32;;;;;;;2.93;2.10;;;;;;;;;;4797769;29;20219;-67
2022/06/05 14:50:01;;;;;;;1.67;1.50;;;;;;;;;;4816156;29;20191;-73
2022/06/05 14:52:30;;;;;;;0.93;0.83;;;;;;;;;;4832798;29;20283;-73
2022/06/05 14:58:23;;;;;;;1.17;0.97;;;;;;;;;;4812399;29;20201;-67
2022/06/05 15:01:08;;;;;;;2.40;1.10;;;;;;;;;;4812540;29;20302;-70
2022/06/05 15:03:37;;;;;;;1.73;1.10;;;;;;;;;;4818028;29;20194;-68
2022/06/05 15:06:05;;;;;;;1.70;1.10;;;;;;;;;;4817211;29;20230;-66
2022/06/05 15:08:41;;;;;;;1.00;1.00;;;;;;;;;;4820638;29;20199;-68
2022/06/05 15:11:18;;;;;;;1.37;1.10;;;;;;;;;;4819913;29;20226;-68
2022/06/05 15:14:01;;;;;;;1.43;0.90;;;;;;;;;;4815952;29;20194;-67
2022/06/05 15:16:39;;;;;;;1.50;1.40;;;;;;;;;;4818033;29;20195;-68
2022/06/05 15:19:08;;;;;;;2.83;0.90;;;;;;;;;;4821188;29;20291;-64
2022/06/05 15:21:37;;;;;;;1.33;1.20;;;;;;;;;;4831970;29;20184;-63
2022/06/05 15:24:42;;;;;;;1.57;1.07;;;;;;;;;;4832093;29;20290;-66
2022/06/05 15:27:35;;;;;;;2.90;1.83;;;;;;;;;;4804374;29;20199;-57
2022/06/05 15:30:14;;;;;;;1.67;1.23;;;;;;;;;;4787386;29;20242;-59
2022/06/05 15:32:41;;;;;;;1.20;1.10;;;;;;;;;;4812403;29;20246;-69